Time;durP1;ratioP1;P1;durP2;ratioP2;P2;SDS_P1;SDS_P2;PMS_P1;PMS_P2;Temp;Humidity;BMP_temperature;BMP_pressure;BME280_temperature;BME280_humidity;BME280_pressure;Samples;Min_cycle;Max_cycle;Signal;HPM_P1;HPM_P2
2021/03/31 00:01:21;;;;;;;27.42;11.60;;;;;;;7.64;88.24;101995.78;5090969;28;20028;-73
2021/03/31 00:03:47;;;;;;;30.20;11.93;;;;;;;7.64;88.20;101990.34;5092793;28;20028;-73
2021/03/31 00:06:12;;;;;;;27.40;12.10;;;;;;;7.65;88.22;101992.03;5087886;28;20114;-72
2021/03/31 00:08:38;;;;;;;33.75;12.77;;;;;;;7.64;88.14;101988.50;5089856;28;20021;-73
2021/03/31 00:11:04;;;;;;;25.63;12.63;;;;;;;7.65;88.07;101987.44;5090045;28;20034;-73
2021/03/31 00:13:30;;;;;;;36.85;12.70;;;;;;;7.67;88.49;101988.03;5087999;28;20617;-73
2021/03/31 00:15:55;;;;;;;32.30;12.32;;;;;;;7.69;88.44;101993.22;5074284;28;20119;-73
2021/03/31 00:18:21;;;;;;;28.25;12.68;;;;;;;7.71;88.61;101991.94;5087625;28;20390;-73
2021/03/31 00:20:47;;;;;;;35.88;12.57;;;;;;;7.73;88.55;101989.03;5091529;28;20026;-73
2021/03/31 00:23:15;;;;;;;27.38;13.70;;;;;;;7.72;88.60;101977.34;5088830;28;20027;-73
2021/03/31 00:25:40;;;;;;;29.48;12.95;;;;;;;7.72;88.43;101976.47;5073568;28;20111;-73
2021/03/31 00:28:09;;;;;;;32.60;12.32;;;;;;;7.74;88.27;101985.25;5089873;28;20454;-73
2021/03/31 00:30:35;;;;;;;31.73;11.32;;;;;;;7.73;88.49;101978.16;5091125;28;20016;-73
2021/03/31 00:33:00;;;;;;;33.22;12.00;;;;;;;7.69;88.05;101971.50;5088655;28;20461;-73
2021/03/31 00:35:26;;;;;;;30.38;11.80;;;;;;;7.66;88.60;101980.94;5073998;28;20077;-73
2021/03/31 00:37:51;;;;;;;33.47;12.10;;;;;;;7.63;88.65;101984.09;5089994;28;20028;-73
2021/03/31 00:40:18;;;;;;;33.45;13.25;;;;;;;7.63;88.50;101977.84;5084235;28;20024;-73
2021/03/31 00:42:44;;;;;;;33.53;12.43;;;;;;;7.60;88.77;101967.44;5088060;28;20452;-73
2021/03/31 00:45:10;;;;;;;25.63;12.02;;;;;;;7.57;88.45;101974.16;5071811;28;20489;-73
2021/03/31 00:47:37;;;;;;;29.75;11.25;;;;;;;7.55;88.64;101971.63;5087883;28;20031;-73
2021/03/31 00:50:07;;;;;;;22.70;11.18;;;;;;;7.53;88.89;101967.53;5067460;28;20032;-73
2021/03/31 00:52:33;;;;;;;28.70;10.20;;;;;;;7.53;88.65;101965.63;5088945;28;20034;-72
2021/03/31 00:54:58;;;;;;;33.80;11.98;;;;;;;7.49;88.70;101972.56;5088336;28;20477;-74
2021/03/31 00:57:24;;;;;;;28.40;11.27;;;;;;;7.48;89.15;101967.38;5073256;28;20028;-74
2021/03/31 00:59:49;;;;;;;24.10;9.88;;;;;;;7.50;88.95;101957.94;5088861;28;20462;-72
2021/03/31 01:02:15;;;;;;;28.20;11.52;;;;;;;7.50;88.94;101957.94;5067549;28;20028;-72
2021/03/31 01:04:40;;;;;;;34.55;12.68;;;;;;;7.51;89.11;101951.44;5089001;28;20031;-72
2021/03/31 01:07:06;;;;;;;35.53;12.63;;;;;;;7.53;88.87;101945.81;5088228;28;20024;-73
2021/03/31 01:09:31;;;;;;;28.08;11.48;;;;;;;7.54;89.13;101947.47;5091178;28;20442;-72
2021/03/31 01:12:19;;;;;;;37.10;13.05;;;;;;;7.50;89.06;101943.53;5089694;28;20461;-73
2021/03/31 01:15:03;;;;;;;28.30;13.50;;;;;;;7.51;89.43;101934.34;5075915;28;20048;-72
2021/03/31 01:17:54;;;;;;;33.03;14.20;;;;;;;7.50;89.00;101936.25;5085245;28;20024;-72
2021/03/31 01:20:38;;;;;;;30.98;13.02;;;;;;;7.49;88.99;101941.88;5081770;28;20032;-72
2021/03/31 01:23:25;;;;;;;29.55;13.38;;;;;;;7.48;89.17;101938.34;5083069;28;20421;-72
2021/03/31 01:26:12;;;;;;;27.58;12.40;;;;;;;7.47;89.36;101939.38;5089066;28;20065;-73
2021/03/31 01:29:09;;;;;;;26.42;13.50;;;;;;;7.47;89.21;101943.97;5083087;28;20024;-72
2021/03/31 01:31:44;;;;;;;32.63;13.20;;;;;;;7.46;89.09;101939.63;5072354;28;20039;-72
2021/03/31 01:34:35;;;;;;;34.63;13.18;;;;;;;7.47;89.11;101942.09;5088012;28;20043;-72
2021/03/31 01:37:01;;;;;;;33.35;13.07;;;;;;;7.49;89.31;101941.88;5086665;28;20031;-72
2021/03/31 01:39:26;;;;;;;30.65;12.20;;;;;;;7.47;89.38;101928.53;5085923;28;20028;-72
2021/03/31 01:41:51;;;;;;;24.27;11.65;;;;;;;7.47;89.37;101930.41;5068669;28;20036;-72
2021/03/31 01:44:17;;;;;;;32.67;13.05;;;;;;;7.47;89.46;101935.84;5071773;28;20020;-72
2021/03/31 01:46:49;;;;;;;30.88;12.68;;;;;;;7.46;89.54;101934.19;5073053;28;20439;-72
2021/03/31 01:49:17;;;;;;;32.53;12.82;;;;;;;7.44;89.46;101930.84;5071247;28;20035;-72
2021/03/31 01:51:42;;;;;;;30.63;13.93;;;;;;;7.44;89.47;101926.25;5083007;28;20620;-72
2021/03/31 01:54:08;;;;;;;34.60;14.43;;;;;;;7.45;89.44;101932.53;5081792;28;20032;-72
2021/03/31 01:56:33;;;;;;;35.83;13.30;;;;;;;7.47;89.38;101930.41;5089284;28;20020;-72
2021/03/31 01:58:58;;;;;;;38.90;14.50;;;;;;;7.47;89.45;101920.38;5070574;28;20024;-72
2021/03/31 02:01:24;;;;;;;29.50;14.27;;;;;;;7.48;89.49;101922.06;5068105;28;20025;-72
2021/03/31 02:03:51;;;;;;;31.92;13.00;;;;;;;7.48;89.23;101921.22;5067860;28;20028;-72
2021/03/31 02:06:16;;;;;;;23.83;11.93;;;;;;;7.45;89.48;101911.66;5064599;28;20365;-73
2021/03/31 02:08:41;;;;;;;32.83;12.20;;;;;;;7.45;89.62;101917.09;5071086;28;20037;-72
2021/03/31 02:11:07;;;;;;;36.47;13.00;;;;;;;7.46;89.35;101917.91;5073309;28;20028;-72
2021/03/31 02:13:33;;;;;;;30.58;13.13;;;;;;;7.44;89.24;101912.69;5065028;28;20028;-72
2021/03/31 02:15:58;;;;;;;38.90;13.65;;;;;;;7.42;89.46;101922.09;5089114;28;20062;-72
2021/03/31 02:18:24;;;;;;;29.45;11.95;;;;;;;7.43;89.58;101919.19;5070715;28;20035;-73
2021/03/31 02:20:52;;;;;;;25.30;11.73;;;;;;;7.40;89.22;101914.22;5072199;28;20043;-72
2021/03/31 02:23:18;;;;;;;29.20;11.55;;;;;;;7.39;89.30;101915.25;5071511;28;20106;-73
2021/03/31 02:25:49;;;;;;;26.92;12.43;;;;;;;7.39;89.53;101920.66;5091440;28;20499;-72
2021/03/31 02:28:15;;;;;;;32.90;12.95;;;;;;;7.38;89.48;101921.75;5092476;28;20020;-72
2021/03/31 02:30:40;;;;;;;30.33;12.98;;;;;;;7.42;89.60;101920.25;5076293;28;20435;-72
2021/03/31 02:33:07;;;;;;;34.45;12.82;;;;;;;7.44;89.73;101920.84;5090411;28;20040;-72
2021/03/31 02:35:33;;;;;;;34.35;14.57;;;;;;;7.44;89.49;101918.13;5074375;28;20051;-72
2021/03/31 02:38:05;;;;;;;32.85;12.70;;;;;;;7.46;89.46;101917.91;5074212;28;20497;-72
2021/03/31 02:40:31;;;;;;;31.85;13.15;;;;;;;7.47;89.39;101917.66;5092560;28;20045;-73
2021/03/31 02:42:57;;;;;;;28.33;12.65;;;;;;;7.50;89.80;101911.81;5092284;28;20051;-72
2021/03/31 02:45:24;;;;;;;27.35;13.60;;;;;;;7.51;89.47;101916.19;5073827;28;20159;-72
2021/03/31 02:47:50;;;;;;;36.70;13.05;;;;;;;7.50;89.62;101909.09;5076688;28;20028;-72
2021/03/31 02:50:23;;;;;;;34.67;14.10;;;;;;;7.50;89.77;101917.25;5069521;28;20025;-72
2021/03/31 02:52:48;;;;;;;;;;;;;;;7.49;89.70;101904.72;5090896;28;20035;-72
2021/03/31 02:55:14;;;;;;;34.80;13.10;;;;;;;7.49;89.47;101907.41;5069904;28;19912;-73
2021/03/31 02:57:40;;;;;;;31.70;12.45;;;;;;;7.48;89.27;101904.94;5091236;28;20112;-73
2021/03/31 03:00:07;;;;;;;28.48;12.95;;;;;;;7.45;89.37;101903.50;5071949;28;20023;-72
2021/03/31 03:02:32;;;;;;;36.33;15.18;;;;;;;7.40;89.38;101902.53;5070389;28;20028;-73
2021/03/31 03:04:58;;;;;;;46.20;17.52;;;;;;;7.33;89.39;101900.69;5064286;28;20032;-72
2021/03/31 03:07:23;;;;;;;52.75;19.30;;;;;;;7.27;89.71;101903.50;5075419;28;20535;-72
2021/03/31 03:09:48;;;;;;;49.97;19.88;;;;;;;7.19;89.49;101895.66;5076771;28;20032;-73
2021/03/31 03:12:15;;;;;;;43.92;20.02;;;;;;;7.14;89.81;101888.16;5080029;28;20027;-72
2021/03/31 03:14:44;;;;;;;43.17;18.38;;;;;;;7.13;89.66;101891.94;5082711;28;20039;-72
2021/03/31 03:17:10;;;;;;;48.28;18.33;;;;;;;7.14;89.90;101882.75;5068612;28;20033;-72
2021/03/31 03:19:35;;;;;;;42.65;19.00;;;;;;;7.17;90.02;101884.19;5078695;28;20036;-73
2021/03/31 03:22:01;;;;;;;39.50;17.00;;;;;;;7.17;89.91;101890.44;5074299;28;20020;-73
2021/03/31 03:24:27;;;;;;;43.13;17.00;;;;;;;7.16;89.64;101890.69;5085841;28;20028;-73
2021/03/31 03:26:52;;;;;;;39.78;16.38;;;;;;;7.15;89.59;101889.00;5092130;28;20024;-72
2021/03/31 03:29:18;;;;;;;43.35;17.27;;;;;;;7.16;89.73;101886.06;5090824;28;20028;-72
2021/03/31 03:31:44;;;;;;;37.20;16.63;;;;;;;7.14;89.79;101882.75;5092474;28;20024;-72
2021/03/31 03:34:09;;;;;;;36.75;15.60;;;;;;;7.10;89.84;101876.13;5087580;28;20028;-72
2021/03/31 03:36:35;;;;;;;42.53;16.95;;;;;;;7.07;90.06;101882.81;5090560;28;20028;-72
2021/03/31 03:39:02;;;;;;;41.08;17.17;;;;;;;7.01;90.14;101883.72;5087238;28;20032;-72
2021/03/31 03:41:28;;;;;;;49.10;18.50;;;;;;;6.95;89.93;101883.78;5085726;28;20552;-72
2021/03/31 03:43:56;;;;;;;43.78;16.95;;;;;;;6.94;90.33;101888.38;5069242;28;20119;-73
2021/03/31 03:46:22;;;;;;;45.25;18.02;;;;;;;6.95;90.37;101884.59;5091813;28;20028;-72
2021/03/31 03:48:47;;;;;;;41.78;17.73;;;;;;;6.98;90.24;101884.16;5088038;28;20043;-72
2021/03/31 03:51:13;;;;;;;43.95;16.90;;;;;;;6.96;90.24;101883.56;5073061;28;20044;-72
2021/03/31 03:53:39;;;;;;;46.10;17.25;;;;;;;6.92;90.29;101876.91;5072866;28;20081;-72
2021/03/31 03:56:13;;;;;;;42.58;15.52;;;;;;;6.84;90.39;101869.06;5091306;28;20077;-74
2021/03/31 03:58:39;;;;;;;35.70;15.13;;;;;;;6.82;90.22;101884.72;5091016;28;20024;-74
2021/03/31 04:01:04;;;;;;;44.97;15.63;;;;;;;6.82;90.45;101877.44;5074066;28;20196;-74
2021/03/31 04:03:30;;;;;;;38.42;16.13;;;;;;;6.89;90.43;101874.66;5066826;28;20024;-73
2021/03/31 04:05:55;;;;;;;45.15;17.20;;;;;;;6.95;90.81;101875.63;5092457;28;20035;-74
2021/03/31 04:08:21;;;;;;;42.45;17.05;;;;;;;7.01;90.56;101877.44;5091725;28;20106;-74
2021/03/31 04:10:50;;;;;;;43.80;17.75;;;;;;;7.06;90.52;101861.34;5091615;28;20051;-74
2021/03/31 04:13:15;;;;;;;41.78;16.60;;;;;;;7.11;90.58;101873.19;5070401;28;20032;-74
2021/03/31 04:15:41;;;;;;;34.40;16.45;;;;;;;7.16;90.69;101869.81;5096130;28;20070;-74
2021/03/31 04:18:06;;;;;;;45.45;18.05;;;;;;;7.17;90.88;101865.19;5056772;28;20058;-73
2021/03/31 04:20:31;;;;;;;39.22;15.48;;;;;;;7.16;90.88;101863.56;5090202;28;20031;-73
2021/03/31 04:22:57;;;;;;;50.50;18.38;;;;;;;7.14;90.72;101860.22;5091106;28;20496;-74
2021/03/31 04:25:24;;;;;;;46.95;19.92;;;;;;;7.14;90.80;101860.22;5072106;28;20036;-74
2021/03/31 04:27:50;;;;;;;42.10;20.52;;;;;;;7.11;91.05;101851.47;5091393;28;20020;-74
2021/03/31 04:30:17;;;;;;;42.60;18.60;;;;;;;7.10;91.09;101855.25;5089317;28;20028;-73
2021/03/31 04:32:44;;;;;;;53.95;22.98;;;;;;;7.08;90.78;101857.34;5074073;28;20024;-73
2021/03/31 04:35:10;;;;;;;54.33;23.75;;;;;;;7.08;90.86;101862.78;5068658;28;20469;-73
2021/03/31 04:37:35;;;;;;;58.00;22.75;;;;;;;7.06;90.87;101861.34;5071509;28;20028;-73
2021/03/31 04:40:04;;;;;;;65.93;26.00;;;;;;;7.09;91.27;101869.88;5087612;28;20027;-73
2021/03/31 04:42:29;;;;;;;66.63;24.73;;;;;;;7.10;91.30;101871.53;5088661;28;20040;-73
2021/03/31 04:44:55;;;;;;;56.53;22.80;;;;;;;7.13;91.02;101864.00;5088438;28;20027;-73
2021/03/31 04:47:20;;;;;;;69.53;26.15;;;;;;;7.14;91.02;101866.47;5087035;28;20032;-73
2021/03/31 04:49:45;;;;;;;60.67;23.05;;;;;;;7.16;91.30;101863.56;5081768;28;20480;-72
2021/03/31 04:52:11;;;;;;;62.47;25.40;;;;;;;7.17;91.11;101866.03;5092435;28;20044;-73
2021/03/31 04:54:36;;;;;;;69.25;24.77;;;;;;;7.18;91.32;101872.31;5090560;28;20073;-73
2021/03/31 04:57:02;;;;;;;65.45;25.27;;;;;;;7.20;91.06;101875.59;5090943;28;20020;-73
2021/03/31 04:59:27;;;;;;;62.22;23.70;;;;;;;7.22;91.01;101868.06;5091163;28;20390;-73
2021/03/31 05:01:53;;;;;;;60.25;24.00;;;;;;;7.22;91.10;101868.06;5089161;28;20443;-73
2021/03/31 05:04:18;;;;;;;60.42;23.70;;;;;;;7.22;91.38;101863.47;5089930;28;20023;-73
2021/03/31 05:06:43;;;;;;;57.67;23.35;;;;;;;7.26;91.48;101863.88;5088634;28;20028;-73
2021/03/31 05:09:10;;;;;;;56.25;22.55;;;;;;;7.28;91.53;101854.47;5089545;28;20035;-73
2021/03/31 05:11:54;;;;;;;60.03;22.88;;;;;;;7.26;91.47;101859.28;5091290;28;20028;-73
2021/03/31 05:14:21;;;;;;;53.67;20.65;;;;;;;7.24;91.33;101866.78;5088982;28;20069;-73
2021/03/31 05:16:47;;;;;;;51.13;20.60;;;;;;;7.19;91.24;101869.34;5077607;28;20512;-73
2021/03/31 05:19:12;;;;;;;54.22;22.10;;;;;;;7.15;91.23;101880.84;5075804;28;20032;-73
2021/03/31 05:21:37;;;;;;;58.65;22.45;;;;;;;7.09;91.23;101869.88;5081533;28;20025;-72
2021/03/31 05:24:05;;;;;;;59.67;21.27;;;;;;;7.04;91.54;101871.59;5087601;28;20024;-73
2021/03/31 05:26:30;;;;;;;69.38;22.23;;;;;;;7.00;91.47;101876.63;5080374;28;20031;-73
2021/03/31 05:28:55;;;;;;;58.75;21.75;;;;;;;6.95;91.56;101879.16;5086611;28;20078;-73
2021/03/31 05:31:21;;;;;;;62.95;23.58;;;;;;;6.93;91.71;101880.44;5086270;28;20465;-73
2021/03/31 05:33:46;;;;;;;55.22;20.33;;;;;;;6.92;91.83;101870.66;5087830;28;20053;-73
2021/03/31 05:36:12;;;;;;;67.18;23.15;;;;;;;6.93;91.92;101873.16;5086631;28;20032;-73
2021/03/31 05:38:38;;;;;;;68.88;21.65;;;;;;;6.93;91.83;101877.72;5085353;28;20039;-73
2021/03/31 05:41:03;;;;;;;61.40;23.25;;;;;;;6.91;91.64;101869.03;5081134;28;20020;-73
2021/03/31 05:43:30;;;;;;;66.28;22.10;;;;;;;6.91;92.02;101872.56;5069510;28;20047;-73
2021/03/31 05:45:55;;;;;;;56.13;20.85;;;;;;;6.92;91.96;101874.19;5082685;28;20060;-73
2021/03/31 05:48:21;;;;;;;65.35;22.40;;;;;;;6.95;91.99;101870.22;5085482;28;20024;-73
2021/03/31 05:50:47;;;;;;;57.83;21.42;;;;;;;6.96;91.77;101871.91;5076265;28;20092;-74
2021/03/31 05:53:12;;;;;;;52.90;19.88;;;;;;;6.99;91.96;101871.44;5084667;28;20043;-74
2021/03/31 05:55:38;;;;;;;60.50;21.60;;;;;;;7.01;91.90;101872.03;5083820;28;20029;-73
2021/03/31 05:58:03;;;;;;;56.92;22.70;;;;;;;7.06;92.06;101880.31;5070332;28;20028;-73
2021/03/31 06:00:29;;;;;;;52.35;21.15;;;;;;;7.10;91.67;101874.25;5088281;28;20100;-73
2021/03/31 06:02:54;;;;;;;54.40;20.33;;;;;;;7.15;91.94;101872.72;5090098;28;20451;-73
2021/03/31 06:05:20;;;;;;;59.50;19.83;;;;;;;7.20;91.96;101865.59;5089467;28;20024;-73
2021/03/31 06:07:46;;;;;;;47.03;17.05;;;;;;;7.23;91.74;101865.16;5091060;28;20024;-73
2021/03/31 06:10:16;;;;;;;49.70;19.50;;;;;;;7.27;91.93;101858.19;5088009;28;20016;-73
2021/03/31 06:12:43;;;;;;;43.90;19.75;;;;;;;7.30;92.16;101859.63;5088196;28;20039;-73
2021/03/31 06:15:37;;;;;;;38.60;16.67;;;;;;;7.31;91.92;101872.13;5086436;28;20494;-73
2021/03/31 06:18:14;;;;;;;45.22;18.40;;;;;;;7.32;92.05;101860.25;5078144;28;20078;-74
2021/03/31 06:23:35;;;;;;;52.40;21.23;;;;;;;7.36;92.21;101857.91;5090568;28;20024;-73
2021/03/31 06:26:15;;;;;;;54.40;19.38;;;;;;;7.40;92.05;101859.94;5088075;28;20490;-73
2021/03/31 06:28:41;;;;;;;50.72;20.42;;;;;;;7.44;92.20;101860.31;5073110;28;20048;-73
2021/03/31 06:31:13;;;;;;;51.15;19.80;;;;;;;7.45;92.12;101857.38;5071668;28;20054;-74
2021/03/31 06:33:40;;;;;;;42.75;17.88;;;;;;;7.48;91.76;101856.94;5086203;28;20477;-74
2021/03/31 06:36:07;;;;;;;52.50;18.35;;;;;;;7.47;92.15;101857.97;5086589;28;20024;-73
2021/03/31 06:38:33;;;;;;;49.60;21.00;;;;;;;7.45;91.74;101851.97;5072798;28;20051;-74
2021/03/31 06:41:10;;;;;;;50.50;19.35;;;;;;;7.46;91.86;101858.22;5073633;28;20488;-74
2021/03/31 06:43:44;;;;;;;43.90;17.42;;;;;;;7.49;92.11;101857.75;5087274;28;20040;-74
2021/03/31 06:46:21;;;;;;;44.25;19.85;;;;;;;7.49;91.94;101864.00;5085439;28;20024;-73
2021/03/31 06:48:47;;;;;;;47.47;18.73;;;;;;;7.52;91.74;101858.13;5071576;28;20036;-71
2021/03/31 06:51:23;;;;;;;50.72;18.73;;;;;;;7.54;91.94;101869.59;5083867;28;20028;-71
2021/03/31 06:53:49;;;;;;;48.33;19.38;;;;;;;7.52;91.67;101852.69;5075472;28;20043;-71
2021/03/31 06:56:14;;;;;;;56.22;19.25;;;;;;;7.51;91.83;101856.47;5086639;28;20020;-74
2021/03/31 06:58:39;;;;;;;49.28;20.15;;;;;;;7.54;91.96;101852.47;5068464;28;20035;-73
2021/03/31 07:01:22;;;;;;;52.53;19.45;;;;;;;7.61;91.78;101850.53;5072269;28;20035;-74
2021/03/31 07:03:48;;;;;;;47.60;18.90;;;;;;;7.67;91.59;101859.63;5088484;28;20024;-74
2021/03/31 07:06:13;;;;;;;46.38;19.67;;;;;;;7.71;91.46;101858.94;5089833;28;20023;-73
2021/03/31 07:08:39;;;;;;;52.15;19.83;;;;;;;7.74;91.55;101854.94;5086934;28;20115;-74
2021/03/31 07:11:04;;;;;;;50.25;19.67;;;;;;;7.81;91.63;101847.53;5088318;28;20039;-71
2021/03/31 07:13:31;;;;;;;48.30;20.27;;;;;;;7.83;91.49;101848.16;5094272;28;20728;-71
2021/03/31 07:15:57;;;;;;;42.80;18.25;;;;;;;7.84;91.26;101838.94;5092844;28;20035;-70
2021/03/31 07:18:23;;;;;;;53.67;19.77;;;;;;;7.84;91.41;101848.97;5073926;28;20021;-70
2021/03/31 07:20:48;;;;;;;42.08;19.13;;;;;;;7.80;91.18;101843.16;5088596;28;20023;-71
2021/03/31 07:23:14;;;;;;;51.40;20.02;;;;;;;7.79;91.39;101849.66;5093170;28;20020;-70
2021/03/31 07:25:39;;;;;;;49.45;19.35;;;;;;;7.79;91.54;101847.75;5071815;28;20035;-70
2021/03/31 07:28:04;;;;;;;49.75;20.23;;;;;;;7.79;91.37;101841.50;5088623;28;20032;-71
2021/03/31 07:30:30;;;;;;;49.97;19.58;;;;;;;7.78;91.40;101845.28;5082693;28;20496;-71
2021/03/31 07:33:01;;;;;;;45.83;19.15;;;;;;;7.79;91.39;101845.03;5069304;28;20024;-71
2021/03/31 07:35:33;;;;;;;46.97;18.85;;;;;;;7.74;90.96;101844.06;5090022;28;20020;-70
2021/03/31 07:38:00;;;;;;;56.90;20.83;;;;;;;7.74;90.98;101846.78;5081462;28;20032;-71
2021/03/31 07:40:25;;;;;;;47.88;19.10;;;;;;;7.77;91.33;101843.63;5090536;28;20086;-71
2021/03/31 07:42:56;;;;;;;43.67;19.77;;;;;;;7.84;91.14;101833.50;5081430;28;20054;-71
2021/03/31 07:45:26;;;;;;;48.90;18.13;;;;;;;7.89;90.94;101836.38;5084863;28;20024;-71
2021/03/31 07:47:52;;;;;;;56.45;20.90;;;;;;;7.95;91.25;101843.59;5071377;28;20016;-71
2021/03/31 07:50:17;;;;;;;45.47;19.10;;;;;;;8.04;90.70;101843.25;5084130;28;20109;-71
2021/03/31 07:52:50;;;;;;;44.67;18.95;;;;;;;8.07;90.75;101849.06;5071227;28;20036;-69
2021/03/31 07:55:34;;;;;;;;;;;;;;;8.16;90.75;101844.16;5089811;28;20103;-69
2021/03/31 07:58:12;;;;;;;41.38;18.50;;;;;;;8.25;90.51;101834.59;5086415;28;20008;-69
2021/03/31 08:00:52;;;;;;;43.80;17.65;;;;;;;8.21;90.43;101836.94;5087998;28;20047;-69
2021/03/31 08:03:24;;;;;;;54.50;19.17;;;;;;;8.12;90.26;101835.59;5082752;28;20028;-70
2021/03/31 08:06:08;;;;;;;52.85;20.92;;;;;;;8.10;90.08;101839.63;5087827;28;20026;-70
2021/03/31 08:08:52;;;;;;;40.33;18.25;;;;;;;8.09;90.37;101837.97;5086669;28;20031;-70
2021/03/31 08:11:36;;;;;;;45.25;18.90;;;;;;;8.07;90.12;101837.38;5069580;28;20485;-70
2021/03/31 08:14:01;;;;;;;42.00;17.02;;;;;;;8.08;90.20;101849.91;5088558;28;20042;-70
2021/03/31 08:16:30;;;;;;;45.28;18.05;;;;;;;8.08;89.97;101844.47;5088892;28;20028;-71
2021/03/31 08:18:56;;;;;;;43.00;16.23;;;;;;;8.04;90.23;101845.97;5088703;28;20103;-70
2021/03/31 08:21:23;;;;;;;41.13;17.85;;;;;;;8.04;90.25;101845.97;5054993;28;20019;-70
2021/03/31 08:23:49;;;;;;;41.25;15.93;;;;;;;8.07;90.22;101848.22;5089625;28;20106;-70
2021/03/31 08:26:30;;;;;;;45.70;17.73;;;;;;;8.07;89.94;101850.94;5082491;28;20376;-70
2021/03/31 08:28:56;;;;;;;37.25;15.88;;;;;;;8.12;89.88;101851.09;5089338;28;20020;-70
2021/03/31 08:31:24;;;;;;;40.67;18.98;;;;;;;8.23;90.17;101853.00;5086211;28;20020;-70
2021/03/31 08:33:49;;;;;;;41.25;17.40;;;;;;;8.37;90.12;101856.34;5090367;28;20027;-71
2021/03/31 08:36:15;;;;;;;36.20;16.38;;;;;;;8.41;89.50;101860.31;5090354;28;20020;-70
2021/03/31 08:38:40;;;;;;;35.80;18.25;;;;;;;8.44;89.78;101855.22;5090001;28;20035;-71
2021/03/31 08:41:15;;;;;;;36.25;17.33;;;;;;;8.46;89.28;101846.84;5088376;28;20100;-70
2021/03/31 08:43:41;;;;;;;48.58;17.80;;;;;;;8.44;89.36;101843.53;5090042;28;20039;-70
2021/03/31 08:46:07;;;;;;;41.92;16.33;;;;;;;8.49;89.36;101851.00;5092008;28;20027;-70
2021/03/31 08:48:50;;;;;;;40.50;17.73;;;;;;;8.52;89.52;101850.53;5088989;28;20080;-71
2021/03/31 08:51:16;;;;;;;45.67;17.08;;;;;;;8.48;88.92;101855.56;5090157;28;20042;-70
2021/03/31 08:53:41;;;;;;;39.53;15.38;;;;;;;8.49;88.93;101851.00;5078328;28;20069;-71
2021/03/31 08:56:18;;;;;;;42.63;15.45;;;;;;;8.48;89.03;101850.13;5067587;28;20032;-70
2021/03/31 08:58:45;;;;;;;29.17;14.93;;;;;;;8.47;88.99;101853.94;5067037;28;20032;-70
2021/03/31 09:01:11;;;;;;;35.60;15.30;;;;;;;8.48;88.86;101854.75;5089738;28;20024;-71
2021/03/31 09:03:36;;;;;;;35.78;15.82;;;;;;;8.41;89.11;101842.09;5090137;28;20055;-70
2021/03/31 09:06:03;;;;;;;35.38;15.65;;;;;;;8.39;88.75;101846.94;5086618;28;20031;-73
2021/03/31 09:08:29;;;;;;;37.47;17.83;;;;;;;8.42;88.65;101856.50;5083178;28;20054;-72
2021/03/31 09:11:00;;;;;;;43.10;16.45;;;;;;;8.43;88.96;101853.56;5087616;28;20024;-72
2021/03/31 09:13:35;;;;;;;43.20;16.50;;;;;;;8.45;88.84;101859.59;5084464;28;20052;-72
2021/03/31 09:16:11;;;;;;;36.90;15.07;;;;;;;8.48;88.88;101854.75;5068662;28;20028;-72
2021/03/31 09:18:41;;;;;;;40.90;15.30;;;;;;;8.44;88.43;101848.97;5053861;28;20028;-72
2021/03/31 09:21:06;;;;;;;39.13;16.38;;;;;;;8.45;88.76;101851.44;5085125;28;20038;-72
2021/03/31 09:23:32;;;;;;;41.33;18.05;;;;;;;8.45;88.64;101843.28;5081358;28;20025;-72
2021/03/31 09:26:02;;;;;;;38.85;16.00;;;;;;;8.55;88.50;101839.19;5084053;28;20036;-72
2021/03/31 09:28:28;;;;;;;33.45;16.15;;;;;;;8.59;88.47;101840.34;5085648;28;20027;-73
2021/03/31 09:30:57;;;;;;;40.13;18.17;;;;;;;8.58;88.25;101838.69;5086560;28;20081;-72
2021/03/31 09:33:26;;;;;;;43.75;16.52;;;;;;;8.57;88.08;101828.91;5070907;28;20039;-72
2021/03/31 09:35:53;;;;;;;44.10;18.40;;;;;;;8.47;88.12;101834.91;5089480;28;20457;-72
2021/03/31 09:38:27;;;;;;;42.22;16.42;;;;;;;8.43;87.92;101844.59;5082461;28;20039;-72
2021/03/31 09:41:01;;;;;;;41.25;17.90;;;;;;;8.33;88.24;101836.97;5089581;28;20020;-72
2021/03/31 09:43:26;;;;;;;42.63;17.13;;;;;;;8.26;88.29;101844.38;5097978;28;20071;-73
2021/03/31 09:45:56;;;;;;;43.22;16.30;;;;;;;8.20;88.28;101843.44;5085179;28;20028;-72
2021/03/31 09:48:21;;;;;;;45.22;16.08;;;;;;;8.15;88.27;101840.56;5086555;28;20110;-73
2021/03/31 09:50:46;;;;;;;39.75;16.35;;;;;;;8.08;88.13;101850.72;5088078;28;20503;-73
2021/03/31 09:53:12;;;;;;;47.40;15.65;;;;;;;8.07;88.33;101831.94;5074146;28;20034;-73
2021/03/31 09:55:37;;;;;;;53.75;15.70;;;;;;;8.03;88.36;101838.91;5091355;28;20050;-73
2021/03/31 09:58:03;;;;;;;36.83;15.30;;;;;;;7.94;88.12;101839.22;5088151;28;20028;-72
2021/03/31 10:00:28;;;;;;;45.78;16.00;;;;;;;7.92;88.30;101825.03;5085162;28;20032;-72
2021/03/31 10:02:55;;;;;;;38.80;15.55;;;;;;;7.91;88.38;101827.97;5082291;28;20024;-72
2021/03/31 10:05:25;;;;;;;34.92;15.95;;;;;;;7.89;88.61;101830.94;5079449;28;20016;-72
2021/03/31 10:08:05;;;;;;;46.58;15.20;;;;;;;7.89;88.69;101820.06;5085768;28;20461;-72
2021/03/31 10:10:44;;;;;;;49.83;18.45;;;;;;;7.77;88.54;101811.03;5088026;28;20039;-72
2021/03/31 10:13:10;;;;;;;59.30;17.33;;;;;;;7.74;88.79;101804.19;5073717;28;20477;-72
2021/03/31 10:15:36;;;;;;;44.95;17.67;;;;;;;7.75;88.50;101803.16;5088739;28;20106;-72
2021/03/31 10:18:01;;;;;;;47.00;18.45;;;;;;;7.83;88.85;101799.28;5081928;28;20043;-73
2021/03/31 10:20:31;;;;;;;57.00;19.20;;;;;;;7.83;88.75;101787.56;5072834;28;20069;-73
2021/03/31 10:22:57;;;;;;;58.70;18.13;;;;;;;7.81;88.81;101795.16;5089735;28;20028;-73
2021/03/31 10:25:27;;;;;;;54.00;17.67;;;;;;;7.77;88.76;101789.31;5090824;28;20512;-73
2021/03/31 10:27:52;;;;;;;51.22;18.83;;;;;;;7.65;88.63;101781.16;5089563;28;20414;-72
2021/03/31 10:30:29;;;;;;;54.13;19.52;;;;;;;7.62;89.12;101780.78;5079057;28;20046;-73
2021/03/31 10:32:54;;;;;;;79.43;20.15;;;;;;;7.57;88.84;101776.84;5086550;28;20045;-73
2021/03/31 10:35:49;;;;;;;58.83;18.95;;;;;;;7.60;88.97;101777.47;5079762;28;20351;-73
2021/03/31 10:38:35;;;;;;;71.95;18.48;;;;;;;7.65;89.50;101766.75;5088563;28;20028;-73
2021/03/31 10:51:47;;;;;;;54.33;18.13;;;;;;;7.46;88.88;101760.53;5085378;28;20046;-73
2021/03/31 10:54:15;;;;;;;75.10;19.67;;;;;;;7.37;88.99;101757.31;5089457;28;20099;-73
2021/03/31 10:59:36;;;;;;;44.97;18.73;;;;;;;7.41;89.28;101766.63;5085982;28;20036;-72
2021/03/31 11:02:01;;;;;;;66.88;18.23;;;;;;;7.41;89.29;101769.34;5088918;28;20024;-73
2021/03/31 11:04:27;;;;;;;38.55;17.35;;;;;;;7.37;89.70;101762.75;5089241;28;20450;-73
2021/03/31 11:06:52;;;;;;;47.88;19.98;;;;;;;7.35;89.58;101764.84;5070577;28;20035;-73
2021/03/31 11:09:18;;;;;;;48.13;19.17;;;;;;;7.33;89.38;101765.06;5088905;28;20020;-73
2021/03/31 11:11:43;;;;;;;41.78;16.85;;;;;;;7.32;89.60;101768.00;5065019;28;20118;-72
2021/03/31 11:14:09;;;;;;;43.25;19.33;;;;;;;7.30;89.64;101770.13;5090951;28;20061;-72
2021/03/31 11:16:35;;;;;;;43.28;18.52;;;;;;;7.29;89.56;101760.34;5092831;28;20035;-72
2021/03/31 11:19:29;;;;;;;44.97;21.05;;;;;;;7.33;89.97;101754.22;5078675;28;20051;-72
2021/03/31 11:27:16;;;;;;;42.92;17.65;;;;;;;7.47;89.88;101745.91;5083528;28;20419;-73
2021/03/31 11:29:42;;;;;;;40.03;16.70;;;;;;;7.48;89.68;101734.00;5080502;28;20024;-73
2021/03/31 11:32:07;;;;;;;34.90;17.17;;;;;;;7.55;89.66;101729.28;5075935;28;20027;-73
2021/03/31 11:34:33;;;;;;;40.13;17.75;;;;;;;7.59;89.26;101732.41;5092075;28;20039;-73
2021/03/31 11:36:58;;;;;;;42.22;16.63;;;;;;;7.61;89.15;101719.41;5088239;28;20028;-73
2021/03/31 11:39:25;;;;;;;41.03;18.17;;;;;;;7.65;89.28;101723.31;5088480;28;20153;-73
2021/03/31 11:41:50;;;;;;;34.17;15.13;;;;;;;7.68;89.20;101720.16;5090424;28;20105;-73
2021/03/31 11:44:16;;;;;;;39.47;16.95;;;;;;;7.71;88.87;101716.97;5090311;28;20028;-73